Time;durP1;ratioP1;P1;durP2;ratioP2;P2;SDS_P1;SDS_P2;PMS_P1;PMS_P2;Temp;Humidity;BMP_temperature;BMP_pressure;BME280_temperature;BME280_humidity;BME280_pressure;Samples;Min_cycle;Max_cycle;Signal;HPM_P1;HPM_P2
2021/04/12 00:02:22;;;;;;;0.30;0.30;;;4.70;99.90;;;;;;5075979;28;20694;-74
2021/04/12 00:05:17;;;;;;;0.50;0.50;;;4.60;99.90;;;;;;5074639;28;20174;-75
2021/04/12 00:08:21;;;;;;;0.75;0.75;;;4.60;99.90;;;;;;5067273;28;20179;-74
2021/04/12 00:10:59;;;;;;;1.27;0.73;;;4.30;99.90;;;;;;5067270;28;20230;-74
2021/04/12 00:13:42;;;;;;;0.20;0.20;;;4.30;99.90;;;;;;5075682;28;20198;-74
2021/04/12 00:16:14;;;;;;;1.25;1.25;;;4.30;99.90;;;;;;5074472;28;20307;-75
2021/04/12 00:18:47;;;;;;;0.30;0.30;;;4.30;99.90;;;;;;5075631;28;20167;-74
2021/04/12 00:21:29;;;;;;;0.40;0.40;;;4.30;99.90;;;;;;5075538;28;20162;-74
2021/04/12 00:23:58;;;;;;;1.75;0.68;;;4.30;99.90;;;;;;5075534;28;20249;-74
2021/04/12 00:26:34;;;;;;;0.50;0.50;;;4.40;99.90;;;;;;5075495;28;20248;-75
2021/04/12 00:29:09;;;;;;;0.55;0.55;;;4.30;99.90;;;;;;5073922;28;20174;-74
2021/04/12 00:31:46;;;;;;;7.30;2.83;;;4.30;99.90;;;;;;5075071;28;20538;-75
2021/04/12 00:34:51;;;;;;;0.50;0.50;;;4.20;99.90;;;;;;5073820;28;20618;-75
2021/04/12 00:37:25;;;;;;;0.40;0.40;;;4.00;99.90;;;;;;5064687;28;20228;-74
2021/04/12 00:39:58;;;;;;;0.28;0.28;;;4.30;99.90;;;;;;5075206;28;20186;-74
2021/04/12 00:42:48;;;;;;;0.20;0.20;;;4.60;99.90;;;;;;5074755;28;20197;-75
2021/04/12 00:45:35;;;;;;;0.35;0.35;;;4.60;99.90;;;;;;5073394;28;20178;-74
2021/04/12 00:48:22;;;;;;;0.47;0.47;;;4.50;99.90;;;;;;5074769;28;20163;-74
2021/04/12 00:50:54;;;;;;;0.50;0.50;;;4.30;99.90;;;;;;5074697;28;20159;-75
2021/04/12 00:53:40;;;;;;;0.20;0.20;;;4.40;99.90;;;;;;5074438;28;20670;-74
2021/04/12 00:56:36;;;;;;;0.80;0.80;;;4.50;99.90;;;;;;5074390;28;20182;-74
2021/04/12 00:59:20;;;;;;;0.40;0.40;;;4.20;99.90;;;;;;5074620;28;20174;-74
2021/04/12 01:01:53;;;;;;;1.30;1.20;;;4.20;99.90;;;;;;5074547;28;20253;-75
2021/04/12 01:05:12;;;;;;;0.38;0.38;;;4.20;99.90;;;;;;5074786;28;20602;-74
2021/04/12 01:08:10;;;;;;;0.77;0.77;;;4.00;99.90;;;;;;5069630;28;20268;-74
2021/04/12 01:10:48;;;;;;;0.20;0.20;;;3.90;99.90;;;;;;5070426;28;20305;-75
2021/04/12 01:13:17;;;;;;;0.20;0.20;;;3.90;99.90;;;;;;5074711;28;20205;-74
2021/04/12 01:16:14;;;;;;;0.57;0.57;;;4.00;99.90;;;;;;5074597;28;20192;-74
2021/04/12 01:22:00;;;;;;;0.30;0.30;;;4.20;99.90;;;;;;5072289;28;20657;-74
2021/04/12 01:24:26;;;;;;;0.30;0.30;;;4.20;99.90;;;;;;5072497;28;20222;-74
2021/04/12 01:27:23;;;;;;;0.20;0.20;;;4.20;99.90;;;;;;5072287;28;20739;-74
2021/04/12 01:30:31;;;;;;;1.65;1.33;;;4.20;99.90;;;;;;5072307;28;20182;-74
2021/04/12 01:33:33;;;;;;;0.33;0.33;;;4.10;99.90;;;;;;5071606;28;20202;-75
2021/04/12 01:36:32;;;;;;;0.20;0.20;;;4.00;99.90;;;;;;5071965;28;20198;-75
2021/04/12 01:39:17;;;;;;;0.20;0.20;;;3.80;99.90;;;;;;5063492;28;20175;-74
2021/04/12 01:41:51;;;;;;;0.20;0.20;;;3.80;99.90;;;;;;5070675;28;20171;-74
2021/04/12 01:44:27;;;;;;;0.70;0.70;;;4.00;99.90;;;;;;5072039;28;20166;-76
2021/04/12 01:47:11;;;;;;;0.35;0.35;;;4.10;99.90;;;;;;5055212;28;20198;-75
2021/04/12 01:49:46;;;;;;;1.45;0.88;;;4.30;99.90;;;;;;5071899;28;20276;-75
2021/04/12 01:52:36;;;;;;;0.20;0.20;;;4.20;99.90;;;;;;5072377;28;20182;-75
2021/04/12 01:55:20;;;;;;;0.50;0.50;;;4.20;99.90;;;;;;5100373;28;20189;-75
2021/04/12 01:58:07;;;;;;;0.50;0.50;;;4.10;99.90;;;;;;5114358;28;20150;-75
2021/04/12 02:00:58;;;;;;;0.30;0.30;;;4.00;99.90;;;;;;5114327;28;20165;-75
2021/04/12 02:03:56;;;;;;;0.63;0.63;;;3.80;99.90;;;;;;5114397;28;20153;-75
2021/04/12 02:06:56;;;;;;;0.20;0.20;;;3.60;99.90;;;;;;5095951;28;20193;-75
2021/04/12 02:09:30;;;;;;;0.30;0.30;;;3.70;99.90;;;;;;5114897;28;20181;-75
2021/04/12 02:12:34;;;;;;;0.30;0.30;;;3.80;99.90;;;;;;5113829;28;20208;-75
2021/04/12 02:15:19;;;;;;;1.15;1.05;;;3.70;99.90;;;;;;5114208;28;20263;-75
2021/04/12 02:18:23;;;;;;;1.90;1.13;;;3.90;99.90;;;;;;5095803;28;20245;-75
2021/04/12 02:21:14;;;;;;;0.50;0.50;;;4.10;99.90;;;;;;5110148;28;20238;-75
2021/04/12 02:24:17;;;;;;;0.30;0.30;;;4.30;99.90;;;;;;5114043;28;20155;-75
2021/04/12 02:26:57;;;;;;;0.50;0.50;;;3.90;99.90;;;;;;5113961;28;20188;-74
2021/04/12 02:29:47;;;;;;;1.00;1.00;;;3.80;99.90;;;;;;5095789;28;20168;-75
2021/04/12 02:32:27;;;;;;;0.30;0.30;;;3.80;99.90;;;;;;5113920;28;20526;-75
2021/04/12 02:35:11;;;;;;;0.38;0.38;;;3.80;99.90;;;;;;5113862;28;20271;-75
2021/04/12 02:38:03;;;;;;;0.30;0.30;;;3.90;99.90;;;;;;5095393;28;20193;-75
2021/04/12 02:41:06;;;;;;;0.50;0.50;;;4.00;99.90;;;;;;5114243;28;20173;-74
2021/04/12 02:43:37;;;;;;;1.40;1.30;;;3.90;99.90;;;;;;5113025;28;20161;-75
2021/04/12 02:46:25;;;;;;;0.20;0.20;;;3.80;99.90;;;;;;5113636;28;20193;-75
2021/04/12 02:49:16;;;;;;;0.30;0.30;;;4.10;99.90;;;;;;5095413;28;20197;-75
2021/04/12 02:52:06;;;;;;;0.30;0.30;;;4.00;99.90;;;;;;5095450;28;20199;-75
2021/04/12 02:54:49;;;;;;;0.52;0.52;;;4.00;99.90;;;;;;5113595;28;20197;-74
2021/04/12 02:57:43;;;;;;;0.30;0.30;;;3.90;99.90;;;;;;5113501;28;20206;-75
2021/04/12 03:00:38;;;;;;;0.30;0.30;;;3.80;99.90;;;;;;5113432;28;20158;-75
2021/04/12 03:03:22;;;;;;;0.30;0.30;;;3.70;99.90;;;;;;5113433;28;20165;-75
2021/04/12 03:06:30;;;;;;;0.40;0.40;;;3.60;99.90;;;;;;5113357;28;20185;-75
2021/04/12 03:09:07;;;;;;;0.50;0.50;;;3.60;99.90;;;;;;5109114;28;20581;-74
2021/04/12 03:11:44;;;;;;;0.50;0.50;;;3.70;99.90;;;;;;5110444;28;20249;-75
2021/04/12 03:14:54;;;;;;;1.13;0.63;;;3.70;99.90;;;;;;5113439;28;20224;-74
2021/04/12 03:17:52;;;;;;;0.57;0.57;;;3.70;99.90;;;;;;5113397;28;20188;-75
2021/04/12 03:20:52;;;;;;;0.57;0.57;;;3.50;99.90;;;;;;5095109;28;20639;-75
2021/04/12 03:23:36;;;;;;;0.60;0.60;;;3.60;99.90;;;;;;5113359;28;20241;-75
2021/04/12 03:26:17;;;;;;;0.40;0.40;;;3.70;99.90;;;;;;5113053;28;20609;-75
2021/04/12 03:28:48;;;;;;;5.50;2.63;;;3.90;99.90;;;;;;5094833;28;20218;-75
2021/04/12 03:31:34;;;;;;;0.20;0.20;;;3.80;99.90;;;;;;5094937;28;20214;-75
2021/04/12 03:34:18;;;;;;;0.30;0.30;;;3.90;99.90;;;;;;5112983;28;20276;-75
2021/04/12 03:37:30;;;;;;;0.50;0.50;;;3.80;99.90;;;;;;5113097;28;20226;-75
2021/04/12 03:39:59;;;;;;;0.88;0.88;;;3.70;99.90;;;;;;5094848;28;20181;-75
2021/04/12 03:42:28;;;;;;;0.50;0.50;;;3.80;99.90;;;;;;5113055;28;20163;-75
2021/04/12 03:45:38;;;;;;;1.13;1.03;;;3.90;99.90;;;;;;5112928;28;20162;-75
2021/04/12 03:48:25;;;;;;;0.40;0.40;;;3.90;99.90;;;;;;5095326;28;20200;-75
2021/04/12 03:51:21;;;;;;;0.47;0.47;;;3.80;99.90;;;;;;5112941;28;20168;-75
2021/04/12 03:54:03;;;;;;;0.50;0.50;;;3.70;99.90;;;;;;5112830;28;20249;-75
2021/04/12 03:56:40;;;;;;;0.30;0.30;;;3.80;99.90;;;;;;5115834;28;20651;-76
2021/04/12 03:59:40;;;;;;;0.55;0.55;;;3.80;99.90;;;;;;5098147;28;20169;-76
2021/04/12 04:02:29;;;;;;;2.67;2.47;;;3.70;99.90;;;;;;5116670;28;20234;-75
2021/04/12 04:05:19;;;;;;;0.27;0.27;;;3.90;99.90;;;;;;5116493;28;20157;-77
2021/04/12 04:08:33;;;;;;;2.20;1.90;;;3.80;99.90;;;;;;5116265;28;20170;-75
2021/04/12 04:11:17;;;;;;;0.20;0.20;;;3.80;99.90;;;;;;5098035;28;20567;-75
2021/04/12 04:13:55;;;;;;;0.47;0.47;;;3.80;99.90;;;;;;5116342;28;20197;-75
2021/04/12 04:16:37;;;;;;;0.25;0.25;;;4.00;99.90;;;;;;5116264;28;20268;-76
2021/04/12 04:19:46;;;;;;;0.70;0.70;;;3.90;99.90;;;;;;5116248;28;20617;-76
2021/04/12 04:22:35;;;;;;;0.30;0.30;;;3.90;99.90;;;;;;5116010;28;20583;-76
2021/04/12 04:25:29;;;;;;;1.03;1.03;;;3.90;99.90;;;;;;5097700;28;20169;-75
2021/04/12 04:28:32;;;;;;;0.30;0.30;;;4.00;99.90;;;;;;5097753;28;20742;-75
2021/04/12 04:31:25;;;;;;;0.30;0.30;;;4.00;99.90;;;;;;5115816;28;20198;-75
2021/04/12 04:34:08;;;;;;;0.45;0.45;;;4.10;99.90;;;;;;5115795;28;20197;-75
2021/04/12 04:36:59;;;;;;;0.30;0.30;;;3.90;99.90;;;;;;5115808;28;20181;-75
2021/04/12 04:39:48;;;;;;;0.40;0.40;;;3.60;99.90;;;;;;5115789;28;20260;-75
2021/04/12 04:42:19;;;;;;;0.20;0.20;;;3.60;99.90;;;;;;5115710;28;20214;-76
2021/04/12 04:44:55;;;;;;;0.50;0.50;;;3.80;99.90;;;;;;5115725;28;20173;-76
2021/04/12 04:47:20;;;;;;;0.30;0.30;;;3.70;99.90;;;;;;5115608;28;20180;-75
2021/04/12 04:50:04;;;;;;;0.20;0.20;;;3.70;99.90;;;;;;5115607;28;20173;-75
2021/04/12 04:52:54;;;;;;;0.52;0.52;;;3.70;99.90;;;;;;5115477;28;20154;-76
2021/04/12 04:55:51;;;;;;;0.20;0.20;;;3.80;99.90;;;;;;5097141;28;20178;-76
2021/04/12 04:58:31;;;;;;;9.95;1.05;;;3.90;99.90;;;;;;5115385;28;20294;-75
2021/04/12 05:00:56;;;;;;;0.30;0.30;;;4.10;99.90;;;;;;5115277;28;20616;-75
2021/04/12 05:03:31;;;;;;;0.40;0.40;;;4.40;99.90;;;;;;5115301;28;20154;-76
2021/04/12 05:06:21;;;;;;;0.40;0.40;;;4.60;99.90;;;;;;5096628;28;20188;-76
2021/04/12 05:09:18;;;;;;;0.50;0.50;;;4.40;99.90;;;;;;5115059;28;20173;-76
2021/04/12 05:12:20;;;;;;;0.45;0.45;;;4.40;99.90;;;;;;5114961;28;20217;-75
2021/04/12 05:15:10;;;;;;;0.30;0.30;;;4.40;99.90;;;;;;5097331;28;20299;-76
2021/04/12 05:18:05;;;;;;;0.70;0.70;;;4.40;99.90;;;;;;5114940;28;20188;-75
2021/04/12 05:21:01;;;;;;;0.93;0.93;;;4.60;99.90;;;;;;5114811;28;20236;-75
2021/04/12 05:23:44;;;;;;;0.45;0.45;;;4.60;99.90;;;;;;5096555;28;20229;-75
2021/04/12 05:26:24;;;;;;;0.20;0.20;;;4.80;99.90;;;;;;5114913;28;20267;-76
2021/04/12 05:29:16;;;;;;;0.20;0.20;;;4.80;99.90;;;;;;5114587;28;20222;-76
2021/04/12 05:31:54;;;;;;;0.35;0.35;;;4.70;99.90;;;;;;5114676;28;20219;-76
2021/04/12 05:34:43;;;;;;;0.20;0.20;;;4.80;99.90;;;;;;5114416;28;20666;-76
2021/04/12 05:37:50;;;;;;;0.25;0.25;;;4.80;99.90;;;;;;5114642;28;20219;-76
2021/04/12 05:40:51;;;;;;;0.30;0.30;;;5.00;99.90;;;;;;5075424;28;20199;-76
2021/04/12 05:43:26;;;;;;;0.28;0.28;;;5.30;99.90;;;;;;5114300;28;20621;-76
2021/04/12 05:46:13;;;;;;;0.35;0.35;;;5.50;99.90;;;;;;5105745;28;20192;-75
2021/04/12 05:48:45;;;;;;;0.22;0.22;;;5.60;99.90;;;;;;5114414;28;20166;-76
2021/04/12 05:51:28;;;;;;;0.30;0.30;;;5.60;99.90;;;;;;5095936;28;20248;-75
2021/04/12 05:54:22;;;;;;;0.20;0.20;;;5.50;99.90;;;;;;5114556;28;20545;-75
2021/04/12 05:57:25;;;;;;;0.32;0.32;;;5.70;99.90;;;;;;5114073;28;20263;-75
2021/04/12 05:59:59;;;;;;;0.20;0.20;;;5.80;99.90;;;;;;5114008;28;20199;-76
2021/04/12 06:02:58;;;;;;;2.70;0.68;;;5.60;99.90;;;;;;5114052;28;20192;-76
2021/04/12 06:05:52;;;;;;;0.50;0.50;;;5.40;99.90;;;;;;5114040;28;20169;-76
2021/04/12 06:08:24;;;;;;;0.40;0.40;;;5.20;99.90;;;;;;5095699;28;20260;-75
2021/04/12 06:10:58;;;;;;;0.30;0.30;;;5.00;99.90;;;;;;5114050;28;20277;-76
2021/04/12 06:13:39;;;;;;;0.40;0.40;;;4.90;99.90;;;;;;5112889;28;20192;-75
2021/04/12 06:16:34;;;;;;;0.57;0.57;;;4.70;99.90;;;;;;5095427;28;20731;-76
2021/04/12 06:19:35;;;;;;;0.20;0.20;;;4.90;99.90;;;;;;5113714;28;20192;-75
2021/04/12 06:22:21;;;;;;;0.50;0.50;;;4.70;99.90;;;;;;5113588;28;20171;-76
2021/04/12 06:25:02;;;;;;;0.38;0.38;;;4.70;99.90;;;;;;5113567;28;20173;-76
2021/04/12 06:27:44;;;;;;;3.50;1.50;;;4.90;99.90;;;;;;5113606;28;20242;-76
2021/04/12 06:30:48;;;;;;;0.38;0.38;;;4.90;99.90;;;;;;5113748;28;20177;-76
2021/04/12 06:33:35;;;;;;;0.93;0.93;;;5.20;99.90;;;;;;5113523;28;20196;-77
2021/04/12 06:36:15;;;;;;;0.20;0.20;;;5.40;99.90;;;;;;5113324;28;20216;-76
2021/04/12 06:39:14;;;;;;;0.22;0.22;;;5.60;99.90;;;;;;5113559;28;20251;-77
2021/04/12 06:42:25;;;;;;;0.20;0.20;;;5.70;99.90;;;;;;5095076;28;20165;-76
2021/04/12 06:45:19;;;;;;;0.20;0.20;;;5.90;99.90;;;;;;5112095;28;20189;-76
2021/04/12 06:47:56;;;;;;;0.30;0.30;;;5.90;99.90;;;;;;5113350;28;20145;-78
2021/04/12 06:50:40;;;;;;;0.20;0.20;;;6.00;99.90;;;;;;5113330;28;20244;-77
2021/04/12 06:53:43;;;;;;;0.20;0.20;;;6.10;99.90;;;;;;5113272;28;20189;-77
2021/04/12 06:56:19;;;;;;;0.30;0.30;;;6.20;99.90;;;;;;5113172;28;20192;-77
2021/04/12 06:59:03;;;;;;;0.20;0.20;;;6.30;99.90;;;;;;5113255;28;20168;-77
2021/04/12 07:01:40;;;;;;;0.20;0.20;;;6.30;99.90;;;;;;5094523;28;20173;-76
2021/04/12 07:04:27;;;;;;;0.10;0.10;;;6.60;99.90;;;;;;5094713;28;20658;-76
2021/04/12 07:07:11;;;;;;;0.50;0.50;;;6.40;99.90;;;;;;5112893;28;20193;-76
2021/04/12 07:09:52;;;;;;;0.20;0.20;;;6.30;99.90;;;;;;5113105;28;20173;-76
2021/04/12 07:12:46;;;;;;;0.55;0.45;;;6.30;99.90;;;;;;5112632;28;20220;-76
2021/04/12 07:15:42;;;;;;;0.20;0.20;;;6.20;99.90;;;;;;5097918;28;20257;-75
2021/04/12 07:18:13;;;;;;;0.30;0.30;;;6.00;99.90;;;;;;5086502;28;20181;-77
2021/04/12 07:20:57;;;;;;;0.30;0.30;;;6.10;99.90;;;;;;5074378;28;20174;-75
2021/04/12 07:24:00;;;;;;;0.20;0.20;;;5.90;99.90;;;;;;5092775;28;20158;-75
2021/04/12 07:26:58;;;;;;;0.65;0.65;;;6.20;99.90;;;;;;5093085;28;20181;-76
2021/04/12 07:29:58;;;;;;;0.30;0.30;;;6.30;99.90;;;;;;5093102;28;20621;-76
2021/04/12 07:32:32;;;;;;;0.20;0.20;;;6.70;99.90;;;;;;5096473;28;20212;-75
2021/04/12 07:35:38;;;;;;;0.35;0.35;;;6.70;99.90;;;;;;5096470;28;20674;-75
2021/04/12 07:38:46;;;;;;;2.95;1.40;;;6.80;99.90;;;;;;5096431;28;20169;-75
2021/04/12 07:41:14;;;;;;;0.20;0.20;;;6.80;99.90;;;;;;5067362;28;20190;-75
2021/04/12 07:43:46;;;;;;;0.68;0.68;;;7.00;99.90;;;;;;5096252;28;20165;-75
2021/04/12 07:46:15;;;;;;;0.20;0.20;;;6.80;99.90;;;;;;5096314;28;20332;-75
2021/04/12 07:48:59;;;;;;;0.20;0.20;;;6.80;99.90;;;;;;5096124;28;20169;-75
2021/04/12 07:52:04;;;;;;;0.38;0.38;;;6.90;99.90;;;;;;5077798;28;20169;-75
2021/04/12 07:54:48;;;;;;;0.20;0.20;;;7.10;99.90;;;;;;5095990;28;20645;-75
2021/04/12 07:58:27;;;;;;;0.20;0.20;;;7.20;99.90;;;;;;5095938;28;20181;-75
2021/04/12 08:01:14;;;;;;;0.25;0.25;;;7.40;99.90;;;;;;5095986;28;20173;-78
2021/04/12 08:04:01;;;;;;;0.52;0.52;;;7.60;99.90;;;;;;5077782;28;20705;-76
2021/04/12 08:07:00;;;;;;;0.20;0.20;;;7.80;99.90;;;;;;5096007;28;20234;-75
2021/04/12 08:10:00;;;;;;;4.68;2.28;;;7.70;99.90;;;;;;5095678;28;20174;-75
2021/04/12 08:12:44;;;;;;;0.30;0.30;;;7.70;99.90;;;;;;5122075;27;20348;-76
2021/04/12 08:15:44;;;;;;;0.43;0.40;;;7.70;99.90;;;;;;5095010;28;20181;-75
2021/04/12 08:18:33;;;;;;;0.20;0.20;;;7.90;99.90;;;;;;5095333;28;20174;-76
2021/04/12 08:21:35;;;;;;;0.22;0.22;;;7.90;99.90;;;;;;5103217;28;20162;-76
2021/04/12 08:24:36;;;;;;;0.32;0.32;;;8.00;99.90;;;;;;5088607;28;20306;-75
2021/04/12 08:27:36;;;;;;;0.20;0.20;;;8.10;99.90;;;;;;5084491;28;20559;-76
2021/04/12 08:30:20;;;;;;;0.20;0.20;;;7.90;99.90;;;;;;5076755;28;20648;-75
2021/04/12 08:32:52;;;;;;;0.20;0.20;;;7.90;99.90;;;;;;5095196;28;20166;-75
2021/04/12 08:35:36;;;;;;;0.17;0.17;;;8.10;99.90;;;;;;5095352;28;20230;-75
2021/04/12 08:38:05;;;;;;;0.20;0.20;;;8.50;99.90;;;;;;5083549;28;20172;-76
2021/04/12 08:40:54;;;;;;;0.82;0.82;;;8.50;99.90;;;;;;5115617;28;20180;-76
2021/04/12 08:43:37;;;;;;;5.63;0.85;;;8.70;99.90;;;;;;5110610;28;20170;-75
2021/04/12 08:46:24;;;;;;;0.20;0.20;;;8.80;99.90;;;;;;5115151;28;20242;-75
2021/04/12 08:49:28;;;;;;;0.10;0.10;;;8.70;99.90;;;;;;5114524;28;20206;-75
2021/04/12 08:52:32;;;;;;;4.03;1.10;;;8.90;99.90;;;;;;5114945;28;20161;-75
2021/04/12 08:55:20;;;;;;;0.20;0.20;;;8.80;99.90;;;;;;5115559;28;20181;-78
2021/04/12 08:58:17;;;;;;;0.10;0.10;;;8.80;99.90;;;;;;5114679;28;20153;-77
2021/04/12 09:01:09;;;;;;;0.13;0.13;;;8.80;99.90;;;;;;5114243;28;20172;-76
2021/04/12 09:03:44;;;;;;;0.35;0.35;;;8.80;99.90;;;;;;5074307;28;20177;-78
2021/04/12 09:06:47;;;;;;;0.20;0.20;;;8.90;99.90;;;;;;5082975;28;20268;-77
2021/04/12 09:09:50;;;;;;;0.47;0.47;;;8.90;99.90;;;;;;5073190;28;20200;-77
2021/04/12 09:12:27;;;;;;;1.02;0.40;;;9.00;99.90;;;;;;5097425;28;20188;-77
2021/04/12 09:15:31;;;;;;;0.30;0.30;;;9.20;99.90;;;;;;5097110;28;20205;-77
2021/04/12 09:18:34;;;;;;;0.20;0.20;;;9.60;99.90;;;;;;5088642;28;20984;-77
2021/04/12 09:21:11;;;;;;;2.35;1.13;;;9.50;99.90;;;;;;5090960;28;20170;-77
2021/04/12 09:24:06;;;;;;;0.20;0.20;;;9.70;99.90;;;;;;5093187;28;20538;-77
2021/04/12 09:26:43;;;;;;;0.38;0.32;;;9.80;99.90;;;;;;5091423;28;20709;-77
2021/04/12 09:29:37;;;;;;;0.50;0.50;;;9.70;99.90;;;;;;5093272;28;20215;-78
2021/04/12 09:32:18;;;;;;;0.30;0.30;;;9.60;99.90;;;;;;5093106;28;20181;-77
2021/04/12 09:35:13;;;;;;;0.20;0.20;;;9.60;99.90;;;;;;5092886;28;20288;-77
2021/04/12 09:37:51;;;;;;;0.68;0.68;;;10.10;99.90;;;;;;5072761;28;20206;-77
2021/04/12 09:40:26;;;;;;;0.43;0.43;;;9.90;99.90;;;;;;5078464;28;20183;-77
2021/04/12 09:42:57;;;;;;;0.30;0.30;;;9.90;99.90;;;;;;5100837;28;20177;-76
2021/04/12 09:46:04;;;;;;;0.22;0.22;;;9.90;99.90;;;;;;5090886;28;20185;-76
2021/04/12 09:48:48;;;;;;;0.30;0.30;;;10.10;99.90;;;;;;5092891;28;20701;-76
2021/04/12 09:51:43;;;;;;;0.90;0.77;;;10.10;99.90;;;;;;5093029;28;20244;-76
2021/04/12 09:54:46;;;;;;;0.20;0.20;;;10.20;99.90;;;;;;5092963;28;20274;-76
2021/04/12 09:57:39;;;;;;;0.30;0.30;;;10.50;99.90;;;;;;5092877;28;20189;-76
2021/04/12 10:00:23;;;;;;;0.20;0.20;;;10.70;99.90;;;;;;5093085;28;20174;-75
2021/04/12 10:03:31;;;;;;;0.47;0.40;;;10.60;99.90;;;;;;5093485;28;20162;-75
2021/04/12 10:06:34;;;;;;;0.25;0.25;;;11.00;99.90;;;;;;5092552;28;20217;-76
2021/04/12 10:09:30;;;;;;;0.57;0.57;;;11.20;99.90;;;;;;5087602;28;20171;-77
2021/04/12 10:12:18;;;;;;;5.15;1.83;;;10.60;99.90;;;;;;5065973;28;20221;-76
2021/04/12 10:14:49;;;;;;;0.60;0.60;;;10.00;99.90;;;;;;5111161;28;20295;-77
2021/04/12 10:17:20;;;;;;;0.77;0.77;;;9.90;99.90;;;;;;5112488;28;20317;-78
2021/04/12 10:19:56;;;;;;;1.00;1.00;;;9.40;99.90;;;;;;5113052;28;20161;-76
2021/04/12 10:22:42;;;;;;;0.25;0.25;;;7.70;99.90;;;;;;5094915;28;20168;-77
2021/04/12 10:25:48;;;;;;;0.35;0.35;;;6.90;99.90;;;;;;5095015;28;20229;-75
2021/04/12 10:28:22;;;;;;;0.30;0.30;;;6.20;99.90;;;;;;5030130;28;20521;-76
2021/04/12 10:30:59;;;;;;;0.40;0.40;;;5.60;99.90;;;;;;5100779;28;20201;-76
2021/04/12 10:33:48;;;;;;;0.20;0.20;;;5.30;99.90;;;;;;5112904;28;20282;-76
2021/04/12 10:36:16;;;;;;;0.20;0.20;;;5.30;99.90;;;;;;5102481;28;20201;-76
2021/04/12 10:38:44;;;;;;;0.30;0.30;;;5.20;99.90;;;;;;5092685;28;20173;-76
2021/04/12 10:41:39;;;;;;;5.13;0.55;;;5.30;99.90;;;;;;5093458;28;20161;-76
2021/04/12 10:44:11;;;;;;;0.20;0.20;;;5.50;99.90;;;;;;5093817;28;20158;-76
2021/04/12 10:47:24;;;;;;;2.28;0.68;;;5.80;99.90;;;;;;5093280;28;20188;-76
2021/04/12 10:50:11;;;;;;;0.40;0.40;;;6.00;99.90;;;;;;5030682;28;20178;-77
2021/04/12 10:53:15;;;;;;;0.22;0.22;;;6.00;99.90;;;;;;5030915;28;20168;-75
2021/04/12 10:56:10;;;;;;;0.20;0.20;;;6.00;99.90;;;;;;5086641;28;20201;-75
2021/04/12 10:58:55;;;;;;;0.40;0.40;;;6.60;99.90;;;;;;5092988;28;20645;-76
2021/04/12 11:01:42;;;;;;;0.28;0.28;;;7.10;99.90;;;;;;5093306;28;20510;-76
2021/04/12 11:04:40;;;;;;;0.10;0.10;;;7.50;99.90;;;;;;5093179;28;20235;-76
2021/04/12 11:07:13;;;;;;;0.50;0.50;;;7.60;99.90;;;;;;5097226;28;20197;-75
2021/04/12 11:10:15;;;;;;;0.50;0.50;;;8.00;99.90;;;;;;5096720;28;20257;-75
2021/04/12 11:12:56;;;;;;;0.30;0.30;;;8.00;99.90;;;;;;5101997;28;20620;-75
2021/04/12 11:15:40;;;;;;;1.23;1.13;;;8.00;99.90;;;;;;5086947;28;20637;-74
2021/04/12 11:18:25;;;;;;;1.40;0.85;;;8.30;99.90;;;;;;5095574;28;20169;-75
2021/04/12 11:21:17;;;;;;;0.43;0.43;;;8.30;99.90;;;;;;5095894;28;20185;-77
2021/04/12 11:24:12;;;;;;;0.25;0.25;;;8.20;99.90;;;;;;5063219;28;20211;-76
2021/04/12 11:26:57;;;;;;;0.60;0.60;;;8.20;99.90;;;;;;5094290;28;20639;-77
2021/04/12 11:29:28;;;;;;;0.20;0.20;;;8.10;99.90;;;;;;5095238;28;20609;-75
2021/04/12 11:32:30;;;;;;;0.57;0.57;;;7.90;99.90;;;;;;5093051;28;20302;-74
2021/04/12 11:35:10;;;;;;;0.30;0.30;;;7.60;99.90;;;;;;5095920;28;20288;-74
2021/04/12 11:37:58;;;;;;;0.43;0.40;;;7.50;99.90;;;;;;5095496;28;20657;-74
2021/04/12 11:40:36;;;;;;;0.32;0.22;;;7.40;99.90;;;;;;5095686;28;20625;-76
2021/04/12 11:43:09;;;;;;;1.15;0.38;;;7.60;99.90;;;;;;5094788;28;20223;-75
2021/04/12 11:45:53;;;;;;;1.58;0.68;;;7.40;99.90;;;;;;5095268;28;20158;-75
2021/04/12 11:48:29;;;;;;;1.35;1.25;;;7.60;99.90;;;;;;5095301;28;20177;-75
2021/04/12 11:51:03;;;;;;;0.40;0.40;;;7.50;99.90;;;;;;5095689;28;20207;-76
2021/04/12 11:53:50;;;;;;;0.43;0.43;;;7.20;99.90;;;;;;5095101;28;20656;-76
2021/04/12 11:56:24;;;;;;;0.30;0.30;;;7.50;99.90;;;;;;5095173;28;20177;-80
2021/04/12 11:59:07;;;;;;;0.20;0.20;;;7.60;99.90;;;;;;5094840;28;20165;-76
2021/04/12 12:02:01;;;;;;;2.17;1.33;;;7.70;99.90;;;;;;5095032;28;20173;-77
2021/04/12 12:04:48;;;;;;;2.22;1.00;;;8.10;99.90;;;;;;5093566;28;20234;-77
2021/04/12 12:07:33;;;;;;;0.80;0.80;;;8.80;99.90;;;;;;5094484;28;20186;-76
2021/04/12 12:10:09;;;;;;;0.75;0.75;;;9.40;99.90;;;;;;5094852;28;20182;-76
2021/04/12 12:12:56;;;;;;;0.98;0.98;;;9.60;99.90;;;;;;5092872;28;20174;-76
2021/04/12 12:15:37;;;;;;;1.17;0.77;;;9.80;99.90;;;;;;5094751;28;20170;-76
2021/04/12 12:18:09;;;;;;;0.45;0.40;;;10.00;99.90;;;;;;5093230;28;20177;-79
2021/04/12 12:21:04;;;;;;;0.47;0.45;;;9.60;99.90;;;;;;5094778;28;20147;-76
2021/04/12 12:23:33;;;;;;;1.20;0.98;;;9.40;99.90;;;;;;5094240;28;20244;-77
2021/04/12 12:26:03;;;;;;;1.25;1.15;;;9.50;99.90;;;;;;5094239;28;20193;-76
2021/04/12 12:28:42;;;;;;;0.35;0.32;;;9.80;99.90;;;;;;5094347;28;20166;-77
2021/04/12 12:31:32;;;;;;;0.95;0.95;;;10.10;99.90;;;;;;5093188;28;20923;-77
2021/04/12 12:34:28;;;;;;;0.85;0.85;;;10.20;99.90;;;;;;5092880;28;20284;-81
2021/04/12 12:37:26;;;;;;;0.32;0.32;;;10.40;99.90;;;;;;5066666;28;20196;-78
2021/04/12 12:39:56;;;;;;;0.52;0.52;;;10.80;99.90;;;;;;5068493;28;20186;-76
2021/04/12 12:42:21;;;;;;;0.60;0.60;;;11.00;99.90;;;;;;5093773;28;20162;-76
2021/04/12 12:44:48;;;;;;;4.20;0.85;;;11.00;99.90;;;;;;5093757;28;20192;-76
2021/04/12 12:47:19;;;;;;;0.75;0.70;;;10.80;99.90;;;;;;5094452;28;20665;-77
2021/04/12 12:49:50;;;;;;;0.95;0.95;;;11.00;99.90;;;;;;5094002;28;20172;-75
2021/04/12 12:52:32;;;;;;;0.82;0.82;;;11.20;99.90;;;;;;5093908;28;20180;-76
2021/04/12 12:55:02;;;;;;;0.60;0.60;;;10.90;99.90;;;;;;5093916;28;20205;-75
2021/04/12 12:57:39;;;;;;;0.90;0.43;;;11.10;99.90;;;;;;5094661;28;20177;-76
2021/04/12 13:00:07;;;;;;;1.02;0.88;;;11.30;99.90;;;;;;5094051;28;20269;-76
2021/04/12 13:02:36;;;;;;;0.63;0.63;;;11.30;99.90;;;;;;5093545;28;20169;-77
2021/04/12 13:05:24;;;;;;;0.52;0.52;;;11.20;99.90;;;;;;5093988;28;20248;-76
2021/04/12 13:08:03;;;;;;;0.68;0.68;;;11.20;99.90;;;;;;5095082;28;20150;-76
2021/04/12 13:10:29;;;;;;;0.77;0.77;;;11.00;99.90;;;;;;5093490;28;20229;-75
2021/04/12 13:12:55;;;;;;;0.77;0.75;;;11.10;99.90;;;;;;5093346;28;20177;-74
2021/04/12 13:15:26;;;;;;;0.73;0.73;;;10.90;99.90;;;;;;5093571;28;20264;-77
2021/04/12 13:18:03;;;;;;;0.85;0.82;;;10.70;99.90;;;;;;5092867;28;20257;-76
2021/04/12 13:20:40;;;;;;;0.88;0.85;;;10.70;99.90;;;;;;5094849;28;20165;-77
2021/04/12 13:23:14;;;;;;;1.90;0.95;;;10.50;99.90;;;;;;5096888;28;20226;-77
2021/04/12 13:25:43;;;;;;;0.20;0.20;;;10.30;99.90;;;;;;5097486;28;20181;-76
2021/04/12 13:28:37;;;;;;;0.93;0.93;;;10.60;99.90;;;;;;5095347;28;20181;-76
2021/04/12 13:31:08;;;;;;;0.70;0.70;;;10.80;99.90;;;;;;5114096;28;20149;-76
2021/04/12 13:33:34;;;;;;;0.75;0.75;;;11.00;99.90;;;;;;5114846;28;20193;-77
2021/04/12 13:36:24;;;;;;;0.30;0.30;;;11.10;99.90;;;;;;5112392;28;20281;-76
2021/04/12 13:39:02;;;;;;;0.75;0.65;;;11.10;99.90;;;;;;5095975;28;20571;-76
2021/04/12 13:41:36;;;;;;;0.32;0.32;;;11.40;99.90;;;;;;5109583;28;20812;-77
2021/04/12 13:44:10;;;;;;;0.98;0.98;;;11.50;99.90;;;;;;5087941;28;20234;-77
2021/04/12 13:46:57;;;;;;;1.50;1.10;;;11.20;99.90;;;;;;5076353;28;20186;-76
2021/04/12 13:49:51;;;;;;;1.15;0.90;;;10.80;99.90;;;;;;5073816;28;20186;-77
2021/04/12 13:52:24;;;;;;;1.20;1.00;;;10.60;99.90;;;;;;5066387;28;20178;-77
2021/04/12 13:55:12;;;;;;;1.15;0.88;;;10.20;99.90;;;;;;5072772;28;20289;-77
2021/04/12 13:58:16;;;;;;;0.65;0.65;;;9.80;99.90;;;;;;5080090;28;20282;-77
2021/04/12 14:00:52;;;;;;;1.05;0.95;;;9.50;99.90;;;;;;5011051;28;20164;-77
2021/04/12 14:03:27;;;;;;;3.50;1.30;;;9.70;99.90;;;;;;5080093;28;20173;-80
2021/04/12 14:06:08;;;;;;;0.30;0.30;;;10.00;99.90;;;;;;5090728;28;20190;-79
2021/04/12 14:08:45;;;;;;;1.10;0.73;;;9.90;99.90;;;;;;5093195;28;20162;-80
2021/04/12 14:11:23;;;;;;;0.68;0.68;;;10.10;99.90;;;;;;5079681;22;20243;-78
2021/04/12 14:14:21;;;;;;;14.38;1.10;;;9.70;99.90;;;;;;5050590;28;20666;-78
2021/04/12 14:16:54;;;;;;;0.88;0.88;;;9.60;99.90;;;;;;5008217;28;20231;-78
2021/04/12 14:19:28;;;;;;;0.77;0.77;;;9.70;99.90;;;;;;5032313;28;20203;-78
2021/04/12 14:22:10;;;;;;;0.55;0.55;;;9.50;99.90;;;;;;5032060;28;20164;-78
2021/04/12 14:24:43;;;;;;;1.38;1.23;;;9.70;99.90;;;;;;5030372;28;20196;-77
2021/04/12 14:27:21;;;;;;;0.98;0.93;;;10.00;99.90;;;;;;5031181;28;20196;-78
2021/04/12 14:30:02;;;;;;;0.68;0.68;;;10.10;99.90;;;;;;5032317;28;20175;-78
2021/04/12 14:32:32;;;;;;;0.60;0.60;;;9.80;99.90;;;;;;5032091;28;20163;-78
2021/04/12 14:35:06;;;;;;;1.15;1.05;;;9.50;99.90;;;;;;5031486;28;20214;-79
2021/04/12 14:37:34;;;;;;;2.15;0.95;;;9.90;99.90;;;;;;5031246;28;20191;-79